Time;durP1;ratioP1;P1;durP2;ratioP2;P2;SDS_P1;SDS_P2;PMS_P1;PMS_P2;Temp;Humidity;BMP_temperature;BMP_pressure;BME280_temperature;BME280_humidity;BME280_pressure;Samples;Min_cycle;Max_cycle;Signal;HPM_P1;HPM_P2
2023/03/10 00:01:13;;;;;;;8.97;3.70;;;9.90;99.90;;;;;;5020090;28;20251;-62
2023/03/10 00:03:42;;;;;;;5.73;3.53;;;9.90;99.90;;;;;;5025932;28;20222;-62
2023/03/10 00:06:12;;;;;;;4.90;3.30;;;10.00;99.90;;;;;;5028474;28;20214;-62
2023/03/10 00:08:41;;;;;;;7.30;3.17;;;9.90;99.90;;;;;;5024493;28;20639;-62
2023/03/10 00:11:10;;;;;;;4.00;2.90;;;9.90;99.90;;;;;;5022622;28;20221;-62
2023/03/10 00:13:38;;;;;;;3.83;3.13;;;9.90;99.90;;;;;;5023984;28;20267;-62
2023/03/10 00:16:07;;;;;;;7.50;3.50;;;9.80;99.90;;;;;;5024995;28;20197;-62
2023/03/10 00:18:41;;;;;;;10.73;3.70;;;9.80;99.90;;;;;;5028694;28;20217;-62
2023/03/10 00:21:13;;;;;;;7.23;3.20;;;9.70;99.90;;;;;;5029788;28;20224;-63
2023/03/10 00:23:41;;;;;;;8.57;3.53;;;9.80;99.90;;;;;;5028653;28;20286;-62
2023/03/10 00:26:15;;;;;;;4.10;3.30;;;9.70;99.90;;;;;;5031145;28;20728;-62
2023/03/10 00:28:46;;;;;;;10.90;3.37;;;9.70;99.90;;;;;;5016298;28;20272;-62
2023/03/10 00:31:16;;;;;;;8.57;3.13;;;9.70;99.90;;;;;;5030789;28;20194;-62
2023/03/10 00:33:48;;;;;;;12.17;3.57;;;9.70;99.90;;;;;;5026042;28;20288;-62
2023/03/10 00:36:19;;;;;;;6.30;2.97;;;9.70;99.90;;;;;;5029754;28;20627;-62
2023/03/10 00:38:48;;;;;;;5.27;3.13;;;9.80;99.90;;;;;;5029489;28;20241;-62
2023/03/10 00:41:18;;;;;;;4.23;2.80;;;9.80;99.90;;;;;;5029563;28;20209;-62
2023/03/10 00:43:46;;;;;;;6.67;3.10;;;9.80;99.90;;;;;;5028180;28;20255;-62
2023/03/10 00:46:15;;;;;;;10.70;3.10;;;9.80;99.90;;;;;;5035353;28;20217;-62
2023/03/10 00:48:43;;;;;;;7.13;3.50;;;9.80;99.90;;;;;;5029014;28;20217;-62
2023/03/10 00:51:13;;;;;;;11.93;4.60;;;9.80;99.90;;;;;;5027539;28;20229;-62
2023/03/10 00:53:42;;;;;;;16.63;5.30;;;9.80;99.90;;;;;;5022778;28;20308;-62
2023/03/10 00:56:13;;;;;;;15.40;5.30;;;9.80;99.90;;;;;;5026238;28;20245;-62
2023/03/10 00:58:41;;;;;;;14.20;7.40;;;9.70;99.90;;;;;;5023014;28;20830;-62
2023/03/10 01:01:14;;;;;;;23.83;7.80;;;9.70;99.90;;;;;;5025164;28;20202;-62
2023/03/10 01:03:42;;;;;;;24.40;8.83;;;9.70;99.90;;;;;;5030644;28;20245;-62
2023/03/10 01:06:11;;;;;;;25.60;8.50;;;9.70;99.90;;;;;;5025499;28;20220;-62
2023/03/10 01:08:41;;;;;;;18.70;8.97;;;9.60;99.90;;;;;;5033247;28;20634;-62
2023/03/10 01:11:09;;;;;;;19.20;7.80;;;9.70;99.90;;;;;;5031761;28;20229;-62
2023/03/10 01:13:37;;;;;;;14.93;8.23;;;9.70;99.90;;;;;;5029986;28;20245;-62
2023/03/10 01:16:08;;;;;;;27.83;8.30;;;9.80;99.90;;;;;;5032232;28;20193;-62
2023/03/10 01:18:37;;;;;;;16.10;7.43;;;9.90;99.90;;;;;;5025438;28;20214;-62
2023/03/10 01:21:06;;;;;;;16.80;6.13;;;9.90;99.90;;;;;;5032474;28;20308;-62
2023/03/10 01:23:34;;;;;;;13.80;6.20;;;9.80;99.90;;;;;;5028330;28;20278;-62
2023/03/10 01:26:04;;;;;;;17.43;5.50;;;9.90;99.90;;;;;;5029771;28;20788;-62
2023/03/10 01:28:32;;;;;;;16.10;6.00;;;9.90;99.90;;;;;;5030361;28;20197;-61
2023/03/10 01:31:01;;;;;;;14.77;5.30;;;9.90;99.90;;;;;;5029588;28;20645;-62
2023/03/10 01:33:29;;;;;;;18.43;5.40;;;9.90;99.90;;;;;;5024545;28;20225;-62
2023/03/10 01:35:57;;;;;;;17.47;5.17;;;9.90;99.90;;;;;;5014357;28;20248;-62
2023/03/10 01:38:26;;;;;;;17.03;4.67;;;9.90;99.90;;;;;;5030590;28;20792;-62
2023/03/10 01:40:54;;;;;;;23.63;4.80;;;9.90;99.90;;;;;;5029840;28;20977;-62
2023/03/10 01:43:33;;;;;;;12.70;4.40;;;9.90;99.90;;;;;;5028317;28;20190;-62
2023/03/10 01:46:42;;;;;;;13.83;4.40;;;9.90;99.90;;;;;;5025111;28;20229;-62
2023/03/10 01:49:19;;;;;;;19.60;4.40;;;9.90;99.90;;;;;;5007141;28;20603;-62
2023/03/10 01:51:51;;;;;;;13.20;4.00;;;9.90;99.90;;;;;;5027732;28;20268;-61
2023/03/10 01:54:23;;;;;;;13.87;3.83;;;10.00;99.90;;;;;;5023208;28;20217;-62
2023/03/10 01:56:54;;;;;;;17.67;3.77;;;10.00;99.90;;;;;;5029107;28;20213;-62
2023/03/10 01:59:26;;;;;;;20.43;3.70;;;9.90;99.90;;;;;;5026895;28;20259;-62
2023/03/10 02:01:55;;;;;;;18.00;4.10;;;9.90;99.90;;;;;;5027056;28;20283;-62
2023/03/10 02:04:32;;;;;;;21.87;3.63;;;9.90;99.90;;;;;;5028491;28;20189;-62
2023/03/10 02:07:03;;;;;;;17.30;3.80;;;9.90;99.90;;;;;;5025032;28;20730;-62
2023/03/10 02:09:35;;;;;;;18.27;3.50;;;9.90;99.90;;;;;;5027869;28;20217;-62
2023/03/10 02:12:04;;;;;;;16.40;3.23;;;9.90;99.90;;;;;;5021755;28;20584;-62
2023/03/10 02:14:35;;;;;;;12.53;3.50;;;9.90;99.90;;;;;;5026570;28;20222;-62
2023/03/10 02:17:05;;;;;;;14.63;3.80;;;9.90;99.90;;;;;;5028921;28;20218;-62
2023/03/10 02:19:53;;;;;;;18.87;3.70;;;9.90;99.90;;;;;;5029472;28;20647;-62
2023/03/10 02:22:21;;;;;;;14.00;3.80;;;9.90;99.90;;;;;;5025800;28;20228;-62
2023/03/10 02:24:52;;;;;;;17.50;3.50;;;9.90;99.90;;;;;;5030319;28;20586;-62
2023/03/10 02:27:24;;;;;;;23.17;3.73;;;9.90;99.90;;;;;;5031123;28;20227;-62
2023/03/10 02:29:58;;;;;;;13.13;3.37;;;10.00;99.90;;;;;;5026621;28;20279;-62
2023/03/10 02:32:30;;;;;;;14.80;3.77;;;10.00;99.90;;;;;;5027202;28;20231;-62
2023/03/10 02:34:59;;;;;;;17.00;3.67;;;10.00;99.90;;;;;;5024981;28;20245;-63
2023/03/10 02:37:29;;;;;;;15.23;3.63;;;10.00;99.90;;;;;;5031699;28;20192;-62
2023/03/10 02:39:58;;;;;;;12.20;3.70;;;10.00;99.90;;;;;;5031186;28;20523;-62
2023/03/10 02:42:30;;;;;;;12.77;3.50;;;10.00;99.90;;;;;;5031815;28;20217;-63
2023/03/10 02:44:59;;;;;;;21.13;3.90;;;10.00;99.90;;;;;;5023188;28;20588;-62
2023/03/10 02:47:27;;;;;;;18.10;3.97;;;10.00;99.90;;;;;;5028633;28;20256;-62
2023/03/10 02:49:56;;;;;;;25.97;4.40;;;10.00;99.90;;;;;;5022548;28;20264;-62
2023/03/10 02:52:29;;;;;;;18.30;4.00;;;10.00;99.90;;;;;;5026715;28;20267;-62
2023/03/10 02:54:57;;;;;;;15.07;3.33;;;10.00;99.90;;;;;;5028379;28;20272;-62
2023/03/10 02:57:27;;;;;;;21.83;3.73;;;10.00;99.90;;;;;;5029261;28;20225;-62
2023/03/10 02:59:55;;;;;;;19.83;3.73;;;10.10;99.90;;;;;;5023839;28;20296;-62
2023/03/10 03:02:23;;;;;;;19.87;3.60;;;10.00;99.90;;;;;;5026222;28;20631;-62
2023/03/10 03:04:51;;;;;;;20.63;3.80;;;10.00;99.90;;;;;;5027883;28;20221;-62
2023/03/10 03:07:19;;;;;;;21.30;3.63;;;10.00;99.90;;;;;;5024419;28;20951;-61
2023/03/10 03:09:49;;;;;;;17.40;4.20;;;10.00;99.90;;;;;;5028188;28;20586;-62
2023/03/10 03:12:17;;;;;;;16.60;3.60;;;10.00;99.90;;;;;;5026768;28;20267;-62
2023/03/10 03:14:47;;;;;;;21.87;3.80;;;10.00;99.90;;;;;;5026739;28;20217;-62
2023/03/10 03:17:16;;;;;;;20.23;3.40;;;10.00;99.90;;;;;;5025885;28;20220;-61
2023/03/10 03:19:44;;;;;;;21.00;3.47;;;10.00;99.90;;;;;;5003507;28;20229;-62
2023/03/10 03:22:12;;;;;;;16.27;3.17;;;10.00;99.90;;;;;;5026172;28;20259;-62
2023/03/10 03:24:40;;;;;;;25.30;4.43;;;10.00;99.90;;;;;;5027423;28;20542;-62
2023/03/10 03:27:12;;;;;;;22.47;4.00;;;10.00;99.90;;;;;;5027757;28;20224;-63
2023/03/10 03:29:40;;;;;;;15.30;3.23;;;10.10;99.90;;;;;;5020136;28;20699;-62
2023/03/10 03:32:10;;;;;;;17.40;3.83;;;10.00;99.90;;;;;;5023519;28;20271;-62
2023/03/10 03:34:38;;;;;;;19.83;3.93;;;10.10;99.90;;;;;;5025115;28;20189;-62
2023/03/10 03:37:06;;;;;;;20.70;3.60;;;10.10;99.90;;;;;;5026884;28;20205;-62
2023/03/10 03:39:36;;;;;;;17.00;3.23;;;10.00;99.90;;;;;;5027189;28;20750;-62
2023/03/10 03:42:05;;;;;;;20.37;4.23;;;10.00;99.90;;;;;;5027475;28;20316;-61
2023/03/10 03:44:35;;;;;;;14.80;3.93;;;10.00;99.90;;;;;;5024046;28;20252;-62
2023/03/10 03:47:04;;;;;;;18.37;3.50;;;9.90;99.90;;;;;;5026792;28;20308;-62
2023/03/10 03:49:34;;;;;;;21.67;3.40;;;9.90;99.90;;;;;;5025101;28;20201;-62
2023/03/10 03:52:02;;;;;;;15.30;3.17;;;9.90;99.90;;;;;;5027212;28;20189;-62
2023/03/10 03:54:30;;;;;;;15.10;3.80;;;9.80;99.90;;;;;;5032085;28;20213;-62
2023/03/10 03:56:59;;;;;;;18.60;3.40;;;9.80;99.90;;;;;;5022002;28;20221;-62
2023/03/10 03:59:27;;;;;;;19.13;3.30;;;9.80;99.90;;;;;;5025271;28;20248;-62
2023/03/10 04:01:56;;;;;;;13.30;3.10;;;9.80;99.90;;;;;;5023661;28;20284;-63
2023/03/10 04:04:26;;;;;;;14.90;2.83;;;9.80;99.90;;;;;;5021748;28;20275;-62
2023/03/10 04:06:55;;;;;;;17.03;3.07;;;9.80;99.90;;;;;;5022902;28;20251;-62
2023/03/10 04:09:24;;;;;;;11.37;3.00;;;9.70;99.90;;;;;;5022037;28;20229;-62
2023/03/10 04:11:52;;;;;;;10.33;2.67;;;9.80;99.90;;;;;;5025540;28;20575;-62
2023/03/10 04:14:20;;;;;;;14.50;3.37;;;9.70;99.90;;;;;;5022060;28;20249;-62
2023/03/10 04:16:48;;;;;;;10.57;2.63;;;9.70;99.90;;;;;;5026237;28;20299;-62
2023/03/10 04:19:17;;;;;;;9.77;2.50;;;9.60;99.90;;;;;;5027738;28;20197;-62
2023/03/10 04:21:45;;;;;;;18.20;3.47;;;9.60;99.90;;;;;;5028785;28;20213;-62
2023/03/10 04:24:14;;;;;;;13.83;2.70;;;9.60;99.90;;;;;;5027337;28;20262;-62
2023/03/10 04:26:43;;;;;;;13.87;3.30;;;9.60;99.90;;;;;;5029558;28;20754;-61
2023/03/10 04:29:11;;;;;;;16.40;3.37;;;9.50;99.90;;;;;;5027176;28;20221;-62
2023/03/10 04:31:40;;;;;;;15.23;2.80;;;9.50;99.90;;;;;;5032509;28;20236;-62
2023/03/10 04:34:08;;;;;;;9.03;2.63;;;9.50;99.90;;;;;;5033784;28;20212;-62
2023/03/10 04:36:36;;;;;;;18.10;3.30;;;9.50;99.90;;;;;;5027114;28;20213;-62
2023/03/10 04:39:05;;;;;;;15.07;3.47;;;9.50;99.90;;;;;;5030793;28;20270;-62
2023/03/10 04:41:35;;;;;;;17.37;3.13;;;9.50;99.90;;;;;;5020175;28;20236;-62
2023/03/10 04:44:03;;;;;;;14.43;2.80;;;9.50;99.90;;;;;;5032623;28;20270;-62
2023/03/10 04:46:32;;;;;;;12.13;2.77;;;9.50;99.90;;;;;;5027394;28;20262;-62
2023/03/10 04:49:00;;;;;;;16.13;3.27;;;9.50;99.90;;;;;;5031802;28;20221;-62
2023/03/10 04:51:29;;;;;;;16.87;3.53;;;9.50;99.90;;;;;;5028795;28;20267;-62
2023/03/10 04:53:58;;;;;;;16.17;2.90;;;9.50;99.90;;;;;;5027719;28;20209;-62
2023/03/10 04:56:27;;;;;;;14.27;3.47;;;9.60;99.90;;;;;;5030502;28;20865;-62
2023/03/10 04:58:57;;;;;;;23.50;3.47;;;9.60;99.90;;;;;;5026314;28;20221;-62
2023/03/10 05:01:25;;;;;;;15.50;2.60;;;9.60;99.90;;;;;;5029026;28;20201;-62
2023/03/10 05:03:53;;;;;;;11.37;3.23;;;9.60;99.90;;;;;;5028727;28;20240;-62
2023/03/10 05:06:22;;;;;;;16.27;3.80;;;9.60;99.90;;;;;;5028791;28;20225;-62
2023/03/10 05:08:51;;;;;;;18.60;3.10;;;9.60;99.90;;;;;;5030147;28;20892;-62
2023/03/10 05:11:19;;;;;;;17.40;3.00;;;9.50;99.90;;;;;;5032277;28;20287;-62
2023/03/10 05:13:47;;;;;;;11.37;2.57;;;9.40;99.90;;;;;;5009060;28;20256;-62
2023/03/10 05:16:19;;;;;;;20.00;3.47;;;9.30;99.90;;;;;;5031688;28;20289;-62
2023/03/10 05:18:48;;;;;;;13.00;3.33;;;9.30;99.90;;;;;;5028004;28;20232;-62
2023/03/10 05:21:16;;;;;;;12.93;2.90;;;9.20;99.90;;;;;;5023244;28;20218;-62
2023/03/10 05:23:45;;;;;;;14.20;3.07;;;9.20;99.90;;;;;;5025943;28;20228;-62
2023/03/10 05:26:13;;;;;;;6.70;2.40;;;9.10;99.90;;;;;;5029286;28;20217;-62
2023/03/10 05:28:41;;;;;;;17.53;3.47;;;9.10;99.90;;;;;;5023737;28;20225;-62
2023/03/10 05:31:11;;;;;;;11.20;3.30;;;9.10;99.90;;;;;;5027820;28;20201;-62
2023/03/10 05:33:41;;;;;;;14.47;2.83;;;9.20;99.90;;;;;;5027560;28;20224;-61
2023/03/10 05:36:12;;;;;;;18.67;4.03;;;9.20;99.90;;;;;;5028403;28;20220;-62
2023/03/10 05:38:41;;;;;;;8.80;2.80;;;9.20;99.90;;;;;;5028668;28;20229;-62
2023/03/10 05:41:10;;;;;;;14.10;2.80;;;9.30;99.90;;;;;;5028906;28;20225;-62
2023/03/10 05:43:39;;;;;;;15.90;3.20;;;9.30;99.90;;;;;;5026301;28;20193;-62
2023/03/10 05:46:07;;;;;;;17.47;2.70;;;9.20;99.90;;;;;;5030301;28;20271;-61
2023/03/10 05:48:36;;;;;;;11.73;3.10;;;9.30;99.90;;;;;;5029413;28;20213;-62
2023/03/10 05:51:07;;;;;;;22.40;3.50;;;9.30;99.90;;;;;;5026752;28;20924;-62
2023/03/10 05:53:37;;;;;;;22.47;3.60;;;9.30;99.90;;;;;;5023649;28;20217;-62
2023/03/10 05:56:07;;;;;;;14.37;2.90;;;9.30;99.90;;;;;;5025073;28;20228;-62
2023/03/10 05:58:38;;;;;;;14.77;3.13;;;9.20;99.90;;;;;;5024415;28;20187;-61
2023/03/10 06:01:07;;;;;;;19.87;3.13;;;9.20;99.90;;;;;;5024015;28;20185;-62
2023/03/10 06:03:35;;;;;;;15.10;3.63;;;9.20;99.90;;;;;;5024502;28;20300;-62
2023/03/10 06:06:06;;;;;;;14.70;3.03;;;9.20;99.90;;;;;;5025823;28;20688;-62
2023/03/10 06:08:35;;;;;;;19.17;3.30;;;9.30;99.90;;;;;;5017620;28;20225;-61
2023/03/10 06:11:05;;;;;;;12.47;2.60;;;9.30;99.90;;;;;;5017048;28;20718;-62
2023/03/10 06:13:33;;;;;;;10.37;3.00;;;9.30;99.90;;;;;;5026285;28;20295;-62
2023/03/10 06:16:03;;;;;;;15.80;3.10;;;9.30;99.90;;;;;;5019505;28;20229;-62
2023/03/10 06:18:32;;;;;;;17.80;2.90;;;9.40;99.90;;;;;;5021178;28;20669;-62
2023/03/10 06:21:06;;;;;;;15.60;3.10;;;9.40;99.90;;;;;;5024382;28;20730;-62
2023/03/10 06:23:35;;;;;;;11.67;2.77;;;9.40;99.90;;;;;;5025392;28;20213;-62
2023/03/10 06:26:05;;;;;;;11.07;2.70;;;9.50;99.90;;;;;;5022195;28;20229;-62
2023/03/10 06:28:35;;;;;;;13.23;3.33;;;9.60;99.90;;;;;;5024354;28;20687;-62
2023/03/10 06:31:06;;;;;;;8.67;2.63;;;9.60;99.90;;;;;;5019356;28;20194;-62
2023/03/10 06:33:35;;;;;;;6.97;2.37;;;9.60;99.90;;;;;;5020798;28;20225;-62
2023/03/10 06:36:04;;;;;;;12.73;2.80;;;9.70;99.90;;;;;;5023416;28;20626;-62
2023/03/10 06:38:34;;;;;;;12.30;2.67;;;9.80;99.90;;;;;;5018236;28;20753;-62
2023/03/10 06:41:02;;;;;;;14.97;3.20;;;9.90;99.90;;;;;;5020746;28;20217;-62
2023/03/10 06:43:31;;;;;;;13.17;3.43;;;9.90;99.90;;;;;;5022396;28;20189;-61
2023/03/10 06:46:03;;;;;;;14.03;3.27;;;9.90;99.90;;;;;;5019426;28;20193;-61
2023/03/10 06:48:31;;;;;;;14.03;3.40;;;9.90;99.90;;;;;;5025223;28;20703;-62
2023/03/10 06:50:59;;;;;;;9.67;2.90;;;10.00;99.90;;;;;;5026363;28;20222;-62
2023/03/10 06:53:28;;;;;;;8.00;2.77;;;10.00;99.90;;;;;;5020977;28;20229;-62
2023/03/10 06:56:02;;;;;;;8.33;2.97;;;10.00;99.90;;;;;;5022951;28;20229;-62
2023/03/10 06:58:33;;;;;;;15.63;3.07;;;9.90;99.90;;;;;;5020098;28;20759;-62
2023/03/10 07:01:01;;;;;;;13.80;3.00;;;9.80;99.90;;;;;;5024891;28;20650;-62
2023/03/10 07:03:30;;;;;;;13.43;3.10;;;9.70;99.90;;;;;;5009469;28;20230;-63
2023/03/10 07:05:59;;;;;;;13.70;3.00;;;9.60;99.90;;;;;;5002618;28;20214;-63
2023/03/10 07:08:28;;;;;;;19.27;3.10;;;9.50;99.90;;;;;;5004854;28;20237;-63
2023/03/10 07:10:56;;;;;;;16.43;3.07;;;9.40;99.90;;;;;;5008346;28;20652;-63
2023/03/10 07:13:26;;;;;;;15.53;3.60;;;9.30;99.90;;;;;;5009420;28;20454;-63
2023/03/10 07:15:54;;;;;;;13.77;4.27;;;9.30;99.90;;;;;;5011677;28;20236;-63
2023/03/10 07:18:26;;;;;;;23.77;3.87;;;9.20;99.90;;;;;;5007240;28;20245;-63
2023/03/10 07:20:55;;;;;;;13.30;3.27;;;9.20;99.90;;;;;;5007512;28;20233;-62
2023/03/10 07:23:24;;;;;;;17.10;3.23;;;9.20;99.90;;;;;;5010023;28;20229;-62
2023/03/10 07:25:53;;;;;;;22.57;4.00;;;9.10;99.90;;;;;;5008556;28;20225;-62
2023/03/10 07:28:21;;;;;;;18.13;3.97;;;9.10;99.90;;;;;;5012341;28;20550;-62
2023/03/10 07:30:51;;;;;;;14.50;3.30;;;9.10;99.90;;;;;;5012223;28;20615;-62
2023/03/10 07:33:19;;;;;;;16.97;3.73;;;9.10;99.90;;;;;;5005613;28;20225;-62
2023/03/10 07:35:47;;;;;;;14.07;3.57;;;9.10;99.90;;;;;;5005927;28;20244;-62
2023/03/10 07:38:15;;;;;;;16.30;3.40;;;9.00;99.90;;;;;;5004321;28;20246;-62
2023/03/10 07:40:44;;;;;;;14.90;3.33;;;9.00;99.90;;;;;;5000645;28;20226;-63
2023/03/10 07:43:12;;;;;;;17.30;3.70;;;9.00;99.90;;;;;;5004805;28;20198;-62
2023/03/10 07:45:40;;;;;;;20.33;3.90;;;9.10;99.90;;;;;;5002017;28;20213;-62
2023/03/10 07:48:10;;;;;;;11.87;3.10;;;9.00;99.90;;;;;;5007717;28;20253;-62
2023/03/10 07:50:39;;;;;;;18.00;3.40;;;9.00;99.90;;;;;;5008375;28;20229;-62
2023/03/10 07:53:07;;;;;;;14.77;3.33;;;9.00;99.90;;;;;;5002341;28;20569;-62
2023/03/10 07:55:37;;;;;;;15.57;3.67;;;9.00;99.90;;;;;;5000700;28;20229;-63
2023/03/10 07:58:06;;;;;;;11.00;3.77;;;8.90;99.90;;;;;;5001184;28;20194;-62
2023/03/10 08:00:34;;;;;;;16.20;3.93;;;8.90;99.90;;;;;;5003447;28;20268;-63
2023/03/10 08:03:02;;;;;;;13.97;3.47;;;9.00;99.90;;;;;;5007494;28;20295;-62
2023/03/10 08:05:32;;;;;;;17.83;3.70;;;9.00;99.90;;;;;;5010402;28;20225;-62
2023/03/10 08:08:00;;;;;;;13.63;3.53;;;9.00;99.90;;;;;;5011460;28;20268;-62
2023/03/10 08:10:28;;;;;;;11.00;3.50;;;9.00;99.90;;;;;;5015513;28;20661;-62
2023/03/10 08:12:56;;;;;;;10.87;3.53;;;9.00;99.90;;;;;;5018033;28;20222;-62
2023/03/10 08:15:25;;;;;;;8.67;3.30;;;9.00;99.90;;;;;;5022528;28;20312;-62
2023/03/10 08:17:53;;;;;;;16.93;3.90;;;9.00;99.90;;;;;;5013816;28;21349;-62
2023/03/10 08:20:22;;;;;;;10.83;3.37;;;9.00;99.90;;;;;;5019641;28;20210;-62
2023/03/10 08:22:52;;;;;;;11.63;3.20;;;8.90;99.90;;;;;;5012864;28;20385;-62
2023/03/10 08:25:21;;;;;;;10.63;3.53;;;8.90;99.90;;;;;;5014876;28;20201;-62
2023/03/10 08:27:50;;;;;;;10.73;3.53;;;9.00;99.90;;;;;;5026554;28;20194;-63
2023/03/10 08:30:18;;;;;;;6.90;3.00;;;9.00;99.90;;;;;;5013506;28;20272;-62
2023/03/10 08:32:46;;;;;;;10.87;3.73;;;9.00;99.90;;;;;;5016138;28;20211;-62
2023/03/10 08:35:15;;;;;;;10.30;3.70;;;9.10;99.90;;;;;;5019603;28;20221;-62
2023/03/10 08:37:43;;;;;;;14.70;3.97;;;9.10;99.90;;;;;;5013806;28;20214;-62
2023/03/10 08:40:14;;;;;;;9.70;3.40;;;9.10;99.90;;;;;;5012970;28;20198;-62
2023/03/10 08:42:43;;;;;;;14.30;3.70;;;9.10;99.90;;;;;;5015037;28;20225;-62
2023/03/10 08:45:15;;;;;;;15.07;3.70;;;9.00;99.90;;;;;;5033275;28;20334;-62
2023/03/10 08:47:43;;;;;;;7.90;3.00;;;9.10;99.90;;;;;;5032846;28;20306;-62
2023/03/10 08:50:12;;;;;;;10.33;3.43;;;9.10;99.90;;;;;;5027493;28;20267;-62
2023/03/10 08:52:41;;;;;;;12.50;3.73;;;9.10;99.90;;;;;;5033114;28;20228;-62
2023/03/10 08:55:11;;;;;;;11.17;3.63;;;9.10;99.90;;;;;;5035171;28;20279;-62
2023/03/10 08:57:40;;;;;;;10.60;4.57;;;9.10;99.90;;;;;;5031817;28;22175;-62
2023/03/10 09:00:11;;;;;;;12.77;3.47;;;9.10;99.90;;;;;;5032341;28;20831;-63
2023/03/10 09:02:40;;;;;;;8.30;3.80;;;9.20;99.90;;;;;;5029843;28;20217;-61
2023/03/10 09:05:10;;;;;;;7.73;3.90;;;9.20;99.90;;;;;;5034403;28;20743;-62
2023/03/10 09:07:38;;;;;;;11.10;4.03;;;9.20;99.90;;;;;;5034326;28;20259;-62
2023/03/10 09:10:07;;;;;;;9.30;4.50;;;9.20;99.90;;;;;;5033197;28;20272;-63
2023/03/10 09:12:35;;;;;;;7.30;4.10;;;9.20;99.90;;;;;;5033658;28;20699;-62
2023/03/10 09:15:08;;;;;;;11.17;4.50;;;9.30;99.90;;;;;;5034265;28;20251;-63
2023/03/10 09:17:36;;;;;;;10.90;4.27;;;9.20;99.90;;;;;;5031798;28;20224;-62
2023/03/10 09:20:09;;;;;;;9.77;4.37;;;9.30;99.90;;;;;;5029437;28;20599;-62
2023/03/10 09:22:37;;;;;;;8.67;4.40;;;9.30;99.90;;;;;;5031895;28;20201;-62
2023/03/10 09:25:06;;;;;;;10.43;4.80;;;9.30;99.90;;;;;;5030452;28;20783;-62
2023/03/10 09:27:35;;;;;;;6.37;4.73;;;9.30;99.90;;;;;;5024421;28;20304;-63
2023/03/10 09:30:03;;;;;;;5.63;4.93;;;9.30;99.90;;;;;;5014808;28;20244;-63
2023/03/10 09:32:33;;;;;;;10.00;4.80;;;9.40;99.90;;;;;;5026792;28;20229;-63
2023/03/10 09:35:01;;;;;;;11.03;5.50;;;9.50;99.90;;;;;;5029844;28;20223;-63
2023/03/10 09:37:30;;;;;;;7.83;4.57;;;9.60;99.90;;;;;;5028523;28;20220;-63
2023/03/10 09:39:58;;;;;;;9.17;4.97;;;9.50;99.90;;;;;;5030505;28;20610;-63
2023/03/10 09:42:39;;;;;;;8.67;5.47;;;9.60;99.90;;;;;;5029741;28;20217;-62
2023/03/10 09:45:25;;;;;;;11.87;4.97;;;9.50;99.90;;;;;;5029998;28;20217;-63
2023/03/10 09:48:08;;;;;;;7.87;5.40;;;9.60;99.90;;;;;;5026205;28;20633;-63
2023/03/10 09:50:42;;;;;;;5.77;4.87;;;9.60;99.90;;;;;;5030180;28;20267;-63
2023/03/10 09:53:37;;;;;;;8.27;4.93;;;9.60;99.90;;;;;;5028862;28;20213;-63
2023/03/10 09:56:12;;;;;;;9.10;4.63;;;9.70;99.90;;;;;;5032854;28;20221;-63
2023/03/10 09:58:45;;;;;;;5.00;4.27;;;9.70;99.90;;;;;;5029536;28;20236;-62
2023/03/10 10:01:17;;;;;;;6.90;4.40;;;9.80;99.90;;;;;;5029990;28;20209;-63
2023/03/10 10:03:50;;;;;;;4.43;4.03;;;9.80;99.90;;;;;;5027308;28;20217;-62
2023/03/10 10:06:24;;;;;;;5.30;4.20;;;9.90;99.90;;;;;;5030314;28;20738;-63
2023/03/10 10:08:58;;;;;;;5.70;4.30;;;9.90;99.90;;;;;;5028514;28;20702;-62
2023/03/10 10:11:35;;;;;;;5.97;4.70;;;10.00;99.90;;;;;;5028947;28;20646;-63
2023/03/10 10:14:16;;;;;;;4.57;4.20;;;10.10;99.90;;;;;;5028435;28;20229;-63
2023/03/10 10:17:02;;;;;;;6.40;4.33;;;10.10;99.90;;;;;;5023442;28;20213;-63
2023/03/10 10:19:38;;;;;;;4.70;4.27;;;10.10;99.90;;;;;;5026997;28;20201;-62
2023/03/10 10:22:19;;;;;;;4.90;4.30;;;10.10;99.90;;;;;;5027333;28;20193;-63
2023/03/10 10:25:02;;;;;;;4.43;4.03;;;10.00;99.90;;;;;;5028575;28;20291;-62
2023/03/10 10:27:34;;;;;;;4.53;4.13;;;10.00;99.90;;;;;;5031912;28;20228;-62
2023/03/10 10:30:35;;;;;;;4.73;4.30;;;10.10;99.90;;;;;;5033006;28;20224;-62
2023/03/10 10:33:05;;;;;;;5.20;4.30;;;10.10;99.90;;;;;;5030997;28;20557;-62
2023/03/10 10:35:36;;;;;;;5.80;4.43;;;10.30;99.90;;;;;;5025682;28;20233;-63
2023/03/10 10:38:17;;;;;;;5.27;4.77;;;10.40;99.90;;;;;;5030613;28;20249;-62
2023/03/10 10:40:50;;;;;;;5.17;4.40;;;10.40;99.90;;;;;;5029334;28;20229;-62
2023/03/10 10:43:20;;;;;;;5.40;4.33;;;10.40;99.90;;;;;;5027540;28;20664;-61
2023/03/10 10:45:53;;;;;;;6.93;4.53;;;10.40;99.90;;;;;;5028093;28;20287;-62
2023/03/10 10:48:36;;;;;;;5.43;4.87;;;10.40;99.90;;;;;;5026972;28;20216;-62
2023/03/10 10:51:19;;;;;;;6.47;4.97;;;10.50;99.90;;;;;;5024450;28;20229;-62
2023/03/10 10:53:48;;;;;;;5.20;4.67;;;10.50;99.90;;;;;;5027525;28;20217;-62
2023/03/10 10:56:18;;;;;;;7.43;5.07;;;10.60;99.90;;;;;;5028415;28;20225;-62
2023/03/10 10:59:01;;;;;;;4.90;4.50;;;10.70;99.90;;;;;;5029746;28;20217;-62
2023/03/10 11:01:47;;;;;;;8.30;5.07;;;10.80;99.90;;;;;;5025139;28;20676;-62
2023/03/10 11:04:15;;;;;;;8.37;4.30;;;11.00;99.90;;;;;;5025128;28;20794;-62
2023/03/10 11:06:46;;;;;;;7.17;4.47;;;11.30;99.90;;;;;;5027429;28;20225;-62
2023/03/10 11:09:17;;;;;;;4.70;4.00;;;11.40;99.90;;;;;;5024835;28;20255;-62
2023/03/10 11:11:55;;;;;;;4.03;3.70;;;11.30;99.90;;;;;;5027127;28;20227;-62
2023/03/10 11:14:35;;;;;;;3.80;3.50;;;11.30;99.90;;;;;;5024559;28;20217;-62
2023/03/10 11:17:11;;;;;;;3.40;3.10;;;11.20;99.90;;;;;;5028624;28;20212;-62
2023/03/10 11:19:55;;;;;;;3.53;3.33;;;11.10;99.90;;;;;;5029008;28;20189;-62
2023/03/10 11:22:36;;;;;;;7.90;3.07;;;10.90;99.90;;;;;;5030405;28;20189;-63
2023/03/10 11:25:15;;;;;;;2.70;2.60;;;10.80;99.90;;;;;;5023403;28;20256;-63
2023/03/10 11:27:51;;;;;;;2.90;2.57;;;10.70;99.90;;;;;;5027367;28;20240;-63
2023/03/10 11:30:27;;;;;;;5.40;3.20;;;10.30;99.90;;;;;;5024165;28;20556;-63
2023/03/10 11:33:08;;;;;;;6.07;3.17;;;10.10;99.90;;;;;;5024233;28;20275;-63
2023/03/10 11:35:44;;;;;;;4.90;3.57;;;9.80;99.90;;;;;;5026884;28;20255;-63
2023/03/10 11:38:36;;;;;;;4.40;3.93;;;9.70;99.90;;;;;;5029880;28;20307;-63
2023/03/10 11:41:10;;;;;;;11.50;4.13;;;9.50;99.90;;;;;;5019730;28;20441;-63
2023/03/10 11:43:49;;;;;;;3.73;3.37;;;9.40;99.90;;;;;;5025399;28;20563;-62
2023/03/10 11:46:24;;;;;;;4.50;4.03;;;9.30;99.90;;;;;;5033610;28;20208;-62
2023/03/10 11:49:06;;;;;;;4.10;3.70;;;9.20;99.90;;;;;;5026619;28;20209;-62
2023/03/10 11:51:38;;;;;;;4.83;4.20;;;9.30;99.90;;;;;;5027945;28;20221;-63
2023/03/10 11:54:15;;;;;;;5.23;4.33;;;9.30;99.90;;;;;;5028908;28;20765;-63
2023/03/10 11:56:44;;;;;;;4.77;3.90;;;9.40;99.90;;;;;;5004705;28;20224;-63
2023/03/10 11:59:18;;;;;;;4.50;4.10;;;9.50;99.90;;;;;;5025497;28;20213;-63
2023/03/10 12:01:51;;;;;;;3.93;3.40;;;9.50;99.90;;;;;;5025470;28;20267;-63
2023/03/10 12:04:23;;;;;;;3.83;3.33;;;9.40;99.90;;;;;;5026406;28;20632;-62
2023/03/10 12:06:56;;;;;;;9.00;2.90;;;9.40;99.90;;;;;;5028378;28;20656;-62
2023/03/10 12:09:35;;;;;;;2.10;2.00;;;9.40;99.90;;;;;;5024651;28;20252;-63
2023/03/10 12:12:04;;;;;;;2.10;2.00;;;9.30;99.90;;;;;;5026431;28;20232;-62
2023/03/10 12:14:35;;;;;;;1.80;1.80;;;9.20;99.90;;;;;;5028022;28;20818;-63
2023/03/10 12:17:05;;;;;;;1.83;1.77;;;9.20;99.90;;;;;;5026340;28;20279;-62
2023/03/10 12:19:53;;;;;;;1.90;1.80;;;9.10;99.90;;;;;;5023808;28;20748;-62
2023/03/10 12:22:40;;;;;;;1.90;1.90;;;9.20;99.90;;;;;;5003918;28;20185;-65
2023/03/10 12:25:40;;;;;;;2.30;2.20;;;9.00;99.90;;;;;;5020459;28;20243;-62
2023/03/10 12:28:33;;;;;;;2.70;2.60;;;8.90;99.90;;;;;;5013002;28;20268;-62
2023/03/10 12:31:03;;;;;;;3.87;3.50;;;8.90;99.90;;;;;;5021695;28;20691;-62
2023/03/10 12:33:41;;;;;;;3.10;2.80;;;8.80;99.90;;;;;;5022586;28;20222;-63
2023/03/10 12:36:13;;;;;;;2.23;2.23;;;8.90;99.90;;;;;;5027853;28;20228;-63
2023/03/10 12:38:46;;;;;;;2.77;2.70;;;8.90;99.90;;;;;;5024397;28;20217;-62
2023/03/10 12:41:35;;;;;;;3.33;2.93;;;8.70;99.90;;;;;;5029233;28;20283;-62
2023/03/10 12:44:08;;;;;;;3.07;2.47;;;8.50;99.90;;;;;;5027011;28;20214;-62
2023/03/10 12:46:43;;;;;;;2.63;2.60;;;8.50;99.90;;;;;;5025290;28;20194;-62
2023/03/10 12:49:26;;;;;;;3.00;2.90;;;8.30;99.90;;;;;;5023404;28;20193;-62
2023/03/10 12:52:09;;;;;;;3.27;2.97;;;8.20;99.90;;;;;;5025048;28;20226;-62
2023/03/10 12:54:52;;;;;;;3.57;3.27;;;8.20;99.90;;;;;;5030789;28;20572;-61
2023/03/10 12:57:28;;;;;;;3.63;3.30;;;8.20;99.90;;;;;;5016090;28;20214;-62
2023/03/10 13:00:01;;;;;;;3.50;3.30;;;8.10;99.90;;;;;;5032636;28;20267;-62
2023/03/10 13:02:37;;;;;;;3.30;3.10;;;8.10;99.90;;;;;;5028362;28;20209;-62
2023/03/10 13:05:17;;;;;;;4.03;3.60;;;8.20;99.90;;;;;;5026516;28;20225;-62
2023/03/10 13:07:49;;;;;;;4.40;4.00;;;8.20;99.90;;;;;;5026873;28;20220;-62
2023/03/10 13:10:21;;;;;;;7.20;4.27;;;8.10;99.90;;;;;;5028248;28;20213;-62